Time;durP1;ratioP1;P1;durP2;ratioP2;P2;SDS_P1;SDS_P2;PMS_P1;PMS_P2;Temp;Humidity;BMP_temperature;BMP_pressure;BME280_temperature;BME280_humidity;BME280_pressure;Samples;Min_cycle;Max_cycle;Signal;HPM_P1;HPM_P2
2022/03/04 00:01:24;;;;;;;;;;;;;;;21.69;54.03;99899.06;7315544;19;130276;-41
2022/03/04 00:03:49;;;;;;;;;;;;;;;21.72;53.65;99889.16;7312175;19;154577;-39
2022/03/04 00:06:15;;;;;;;;;;;;;;;21.90;53.67;99898.06;7313896;19;129201;-39
2022/03/04 00:08:40;;;;;;;;;;;;;;;22.01;53.05;99904.16;7313363;19;158650;-41
2022/03/04 00:11:05;;;;;;;;;;;;;;;22.02;52.60;99882.22;7313039;19;129217;-41
2022/03/04 00:13:31;;;;;;;;;;;;;;;22.27;52.25;99889.56;7312613;19;132253;-39
2022/03/04 00:15:56;;;;;;;;;;;;;;;22.34;52.17;99891.53;7314158;19;129643;-39
2022/03/04 00:18:21;;;;;;;;;;;;;;;22.49;52.12;99894.56;7314340;19;129122;-40
2022/03/04 00:20:46;;;;;;;;;;;;;;;22.59;51.89;99895.41;7313596;19;129337;-39
2022/03/04 00:23:12;;;;;;;;;;;;;;;22.62;51.20;99895.13;7314230;19;140787;-41
2022/03/04 00:25:37;;;;;;;;;;;;;;;22.58;51.77;99893.75;7312670;19;129768;-40
2022/03/04 00:28:03;;;;;;;;;;;;;;;22.52;51.26;99895.09;7313265;19;130182;-39
2022/03/04 00:30:28;;;;;;;;;;;;;;;22.42;52.15;99896.91;7313248;19;129137;-40
2022/03/04 00:32:53;;;;;;;;;;;;;;;22.35;52.42;99893.16;7313396;19;130598;-41
2022/03/04 00:35:18;;;;;;;;;;;;;;;22.27;52.21;99894.81;7311525;19;153141;-39
2022/03/04 00:37:43;;;;;;;;;;;;;;;22.07;52.24;99878.25;7311463;19;158716;-40
2022/03/04 00:40:10;;;;;;;;;;;;;;;22.09;52.79;99904.28;7312349;19;129226;-40
2022/03/04 00:42:35;;;;;;;;;;;;;;;22.03;52.95;99902.22;7313244;19;129176;-40
2022/03/04 00:45:00;;;;;;;;;;;;;;;21.94;53.32;99901.25;7309925;19;153983;-40
2022/03/04 00:47:26;;;;;;;;;;;;;;;21.84;53.95;99905.63;7313109;19;130349;-40
2022/03/04 00:49:51;;;;;;;;;;;;;;;21.77;53.93;99896.63;7310950;19;145422;-39
2022/03/04 00:52:16;;;;;;;;;;;;;;;21.71;54.05;99900.59;7310759;19;154872;-40
2022/03/04 00:54:41;;;;;;;;;;;;;;;21.68;54.91;99903.47;7310823;19;129432;-39
2022/03/04 00:57:06;;;;;;;;;;;;;;;21.64;55.21;99896.84;7310273;19;158238;-41
2022/03/04 00:59:32;;;;;;;;;;;;;;;21.61;55.09;99897.13;7311561;19;158812;-39
2022/03/04 01:01:57;;;;;;;;;;;;;;;21.59;55.77;99899.03;7313027;19;128883;-39
2022/03/04 01:04:22;;;;;;;;;;;;;;;21.59;55.73;99899.03;7308815;19;145410;-40
2022/03/04 01:06:48;;;;;;;;;;;;;;;21.59;56.00;99899.03;7310448;19;130466;-40
2022/03/04 01:09:13;;;;;;;;;;;;;;;21.50;55.61;99888.53;7309962;19;158793;-40
2022/03/04 01:11:38;;;;;;;;;;;;;;;21.55;55.72;99905.47;7312912;19;129077;-40
2022/03/04 01:14:04;;;;;;;;;;;;;;;21.49;55.90;99892.94;7308301;19;152368;-39
2022/03/04 01:16:29;;;;;;;;;;;;;;;21.50;55.27;99893.78;7312375;19;129103;-40
2022/03/04 01:18:55;;;;;;;;;;;;;;;21.52;54.94;99897.91;7310292;19;158540;-39
2022/03/04 01:21:20;;;;;;;;;;;;;;;21.58;54.40;99891.31;7311073;19;128965;-40
2022/03/04 01:23:45;;;;;;;;;;;;;;;21.68;54.41;99898.22;7308747;19;154333;-41
2022/03/04 01:26:10;;;;;;;;;;;;;;;21.78;53.97;99893.09;7310106;19;146966;-40
2022/03/04 01:28:35;;;;;;;;;;;;;;;21.90;53.74;99894.59;7312683;19;130367;-41
2022/03/04 01:31:01;;;;;;;;;;;;;;;22.03;53.00;99886.53;7310401;19;132411;-39
2022/03/04 01:33:26;;;;;;;;;;;;;;;22.13;53.09;99887.38;7309839;19;129712;-40
2022/03/04 01:35:51;;;;;;;;;;;;;;;22.27;52.31;99895.66;7311057;19;130190;-40
2022/03/04 01:38:16;;;;;;;;;;;;;;;22.40;52.25;99895.38;7311867;19;147516;-39
2022/03/04 01:40:42;;;;;;;;;;;;;;;22.52;51.83;99895.09;7310825;19;147025;-40
2022/03/04 01:43:07;;;;;;;;;;;;;;;22.57;51.14;99894.72;7310626;19;129704;-40
2022/03/04 01:45:32;;;;;;;;;;;;;;;22.46;51.18;99873.88;7309598;19;158368;-40
2022/03/04 01:47:57;;;;;;;;;;;;;;;22.50;52.05;99888.34;7311909;19;130623;-41
2022/03/04 01:50:24;;;;;;;;;;;;;;;22.42;51.65;99890.81;7309463;19;155063;-40
2022/03/04 01:52:49;;;;;;;;;;;;;;;22.35;52.48;99887.09;7310143;19;128585;-39
2022/03/04 01:55:14;;;;;;;;;;;;;;;22.25;52.01;99892.31;7309336;19;151736;-41
2022/03/04 01:57:39;;;;;;;;;;;;;;;22.17;52.82;99883.50;7310446;19;130150;-40
2022/03/04 02:00:07;;;;;;;;;;;;;;;22.10;53.04;99893.69;7310656;19;129339;-40
2022/03/04 02:02:32;;;;;;;;;;;;;;;22.00;52.79;99892.03;7311547;19;129852;-40
2022/03/04 02:04:57;;;;;;;;;;;;;;;21.91;53.51;99884.00;7307011;19;159002;-39
2022/03/04 02:07:22;;;;;;;;;;;;;;;21.84;53.40;99882.06;7308943;19;148303;-40
2022/03/04 02:09:47;;;;;;;;;;;;;;;21.75;53.52;99878.44;7309916;19;143852;-39
2022/03/04 02:12:13;;;;;;;;;;;;;;;21.70;54.91;99869.34;7311006;19;129048;-41
2022/03/04 02:14:38;;;;;;;;;;;;;;;21.64;54.92;99875.94;7308804;19;130352;-40
2022/03/04 02:17:04;;;;;;;;;;;;;;;21.62;54.69;99871.78;7308275;19;159220;-38
2022/03/04 02:19:29;;;;;;;;;;;;;;;21.59;55.19;99877.28;7310810;19;128945;-41
2022/03/04 02:21:55;;;;;;;;;;;;;;;21.55;55.35;99875.91;7310663;19;128873;-40
2022/03/04 02:24:22;;;;;;;;;;;;;;;21.55;55.88;99881.94;7308383;19;129009;-40
2022/03/04 02:26:48;;;;;;;;;;;;;;;21.54;56.00;99879.47;7310001;19;130358;-41
2022/03/04 02:29:13;;;;;;;;;;;;;;;21.54;56.01;99882.06;7310536;19;129974;-41
2022/03/04 02:31:38;;;;;;;;;;;;;;;21.49;55.68;99879.88;7309054;19;153791;-39
2022/03/04 02:34:03;;;;;;;;;;;;;;;21.50;55.66;99878.88;7312736;19;129529;-40
2022/03/04 02:36:29;;;;;;;;;;;;;;;21.39;55.63;99859.84;7316883;19;130310;-41
2022/03/04 02:38:54;;;;;;;;;;;;;;;21.52;54.58;99887.44;7316854;19;129667;-40
2022/03/04 02:41:19;;;;;;;;;;;;;;;21.61;54.84;99886.66;7316156;19;153199;-41
2022/03/04 02:43:45;;;;;;;;;;;;;;;21.71;54.18;99887.53;7315295;19;130789;-40
2022/03/04 02:46:10;;;;;;;;;;;;;;;21.82;53.64;99884.81;7315934;19;131037;-41
2022/03/04 02:48:35;;;;;;;;;;;;;;;21.93;53.44;99883.91;7316053;19;155073;-40
2022/03/04 02:51:00;;;;;;;;;;;;;;;21.94;53.61;99868.06;7317250;19;135481;-40
2022/03/04 02:53:25;;;;;;;;;;;;;;;22.09;53.07;99860.63;7315699;19;130255;-41
2022/03/04 02:55:51;;;;;;;;;;;;;;;22.29;52.67;99879.78;7314033;19;143657;-38
2022/03/04 02:58:16;;;;;;;;;;;;;;;22.42;51.84;99875.09;7315556;19;129085;-40
2022/03/04 03:00:43;;;;;;;;;;;;;;;22.54;52.15;99876.66;7316278;19;129085;-40
2022/03/04 03:03:08;;;;;;;;;;;;;;;22.61;51.54;99867.28;7314814;19;129202;-41
2022/03/04 03:05:33;;;;;;;;;;;;;;;22.68;51.71;99884.91;7315058;19;130285;-39
2022/03/04 03:07:58;;;;;;;;;;;;;;;22.65;51.43;99873.88;7315979;19;128788;-40
2022/03/04 03:10:23;;;;;;;;;;;;;;;22.62;51.64;99876.78;7315660;19;129619;-40
2022/03/04 03:12:48;;;;;;;;;;;;;;;22.51;51.51;99869.84;7316199;19;129186;-41
2022/03/04 03:15:15;;;;;;;;;;;;;;;22.46;51.93;99866.03;7311713;19;157595;-40
2022/03/04 03:17:40;;;;;;;;;;;;;;;22.33;51.97;99868.09;7316176;19;129629;-40
2022/03/04 03:20:06;;;;;;;;;;;;;;;22.22;52.13;99849.88;7315635;19;129355;-40
2022/03/04 03:22:32;;;;;;;;;;;;;;;22.12;53.13;99849.03;7315470;19;132545;-40
2022/03/04 03:24:57;;;;;;;;;;;;;;;22.04;53.40;99856.75;7313004;19;143358;-41
2022/03/04 03:27:22;;;;;;;;;;;;;;;21.94;53.02;99847.09;7315055;19;129957;-40
2022/03/04 03:29:47;;;;;;;;;;;;;;;21.85;53.88;99839.22;7314029;19;154369;-40
2022/03/04 03:32:13;;;;;;;;;;;;;;;21.77;53.89;99839.06;7315421;19;129344;-40
2022/03/04 03:34:39;;;;;;;;;;;;;;;21.72;54.40;99836.84;7313371;19;130515;-39
2022/03/04 03:37:04;;;;;;;;;;;;;;;21.65;55.02;99845.38;7315456;19;129307;-39
2022/03/04 03:39:30;;;;;;;;;;;;;;;21.61;55.30;99854.44;7316130;19;130138;-40
2022/03/04 03:41:55;;;;;;;;;;;;;;;21.61;54.96;99859.66;7315207;19;142594;-39
2022/03/04 03:44:20;;;;;;;;;;;;;;;21.54;55.44;99854.13;7312635;19;130546;-39
2022/03/04 03:46:45;;;;;;;;;;;;;;;21.53;54.91;99868.19;7314522;19;129724;-40
2022/03/04 03:49:11;;;;;;;;;;;;;;;21.48;54.73;99878.22;7311458;19;153738;-40
2022/03/04 03:51:36;;;;;;;;;;;;;;;21.55;54.87;99871.47;7315848;19;130847;-40
2022/03/04 03:54:01;;;;;;;;;;;;;;;21.78;54.00;99865.09;7313400;19;129761;-40
2022/03/04 03:56:26;;;;;;;;;;;;;;;22.24;53.02;99871.53;7315110;19;129531;-36
2022/03/04 03:58:52;;;;;;;;;;;;;;;22.75;51.30;99864.22;7313154;19;137383;-40
2022/03/04 04:01:17;;;;;;;;;;;;;;;23.14;50.68;99878.88;7316367;19;130419;-41
2022/03/04 04:03:42;;;;;;;;;;;;;;;23.45;49.30;99875.09;7312305;19;158507;-39
2022/03/04 04:06:08;;;;;;;;;;;;;;;23.81;48.37;99876.84;7315128;19;129075;-40
2022/03/04 04:08:33;;;;;;;;;;;;;;;24.04;47.99;99888.63;7313338;19;150392;-38
2022/03/04 04:10:58;;;;;;;;;;;;;;;24.15;47.64;99885.78;7314715;19;130471;-40
2022/03/04 04:13:23;;;;;;;;;;;;;;;24.39;46.54;99891.25;7313430;19;130293;-41
2022/03/04 04:15:48;;;;;;;;;;;;;;;24.46;46.88;99896.75;7315198;19;129681;-40
2022/03/04 04:18:14;;;;;;;;;;;;;;;24.52;46.38;99895.31;7312683;19;153279;-40
2022/03/04 04:20:39;;;;;;;;;;;;;;;24.55;46.57;99895.00;7313641;19;135996;-40
2022/03/04 04:23:04;;;;;;;;;;;;;;;24.63;46.38;99895.06;7313009;19;158798;-40
2022/03/04 04:25:29;;;;;;;;;;;;;;;24.64;46.15;99891.47;7312737;19;155048;-39
2022/03/04 04:27:54;;;;;;;;;;;;;;;24.68;46.42;99891.03;7312473;19;154574;-40
2022/03/04 04:30:19;;;;;;;;;;;;;;;24.69;46.43;99892.72;7312733;19;129112;-40
2022/03/04 04:32:45;;;;;;;;;;;;;;;24.76;46.16;99895.56;7312333;19;158128;-40
2022/03/04 04:35:10;;;;;;;;;;;;;;;24.84;45.62;99898.25;7310651;19;129252;-40
2022/03/04 04:37:35;;;;;;;;;;;;;;;24.88;45.74;99894.31;7314362;19;129478;-40
2022/03/04 04:40:01;;;;;;;;;;;;;;;24.86;46.23;99897.09;7313446;19;130178;-40
2022/03/04 04:42:26;;;;;;;;;;;;;;;24.88;46.09;99904.84;7313675;19;130673;-39
2022/03/04 04:44:51;;;;;;;;;;;;;;;24.92;45.58;99907.03;7310229;19;148828;-40
2022/03/04 04:47:16;;;;;;;;;;;;;;;24.98;45.82;99901.13;7312248;19;128824;-40
2022/03/04 04:49:41;;;;;;;;;;;;;;;25.05;45.74;99906.59;7312135;19;155666;-40
2022/03/04 04:52:07;;;;;;;;;;;;;;;25.01;45.51;99903.47;7313361;19;130366;-41
2022/03/04 04:54:32;;;;;;;;;;;;;;;24.82;45.95;99900.19;7311415;19;129217;-39
2022/03/04 04:56:58;;;;;;;;;;;;;;;24.73;46.17;99898.47;7308999;19;129603;-37
2022/03/04 04:59:23;;;;;;;;;;;;;;;24.53;46.92;99899.59;7311869;19;129017;-40
2022/03/04 05:01:48;;;;;;;;;;;;;;;24.36;47.44;99904.69;7312538;19;159358;-40
2022/03/04 05:04:13;;;;;;;;;;;;;;;24.23;47.75;99898.16;7309199;19;153383;-40
2022/03/04 05:06:38;;;;;;;;;;;;;;;24.14;47.70;99902.53;7312990;19;129680;-39
2022/03/04 05:09:04;;;;;;;;;;;;;;;24.02;47.90;99906.31;7312317;19;130068;-40
2022/03/04 05:11:29;;;;;;;;;;;;;;;23.90;48.56;99896.94;7312462;19;130243;-40
2022/03/04 05:13:54;;;;;;;;;;;;;;;23.81;48.51;99900.47;7311891;19;129296;-40
2022/03/04 05:16:20;;;;;;;;;;;;;;;23.77;48.94;99890.38;7311712;19;129419;-40
2022/03/04 05:18:45;;;;;;;;;;;;;;;23.67;48.60;99882.56;7311598;19;129169;-40
2022/03/04 05:21:10;;;;;;;;;;;;;;;23.73;48.50;99894.28;7311361;19;158538;-41
2022/03/04 05:26:19;;;;;;;;;;;;;;;23.76;48.41;99894.84;7311967;19;129652;-40
2022/03/04 05:28:44;;;;;;;;;;;;;;;23.74;48.83;99902.03;7309338;19;159173;-41
2022/03/04 05:31:10;;;;;;;;;;;;;;;23.79;48.72;99907.66;7310887;19;152855;-40
2022/03/04 05:33:35;;;;;;;;;;;;;;;23.77;48.80;99896.47;7310390;19;155880;-40
2022/03/04 05:36:00;;;;;;;;;;;;;;;23.76;48.36;99886.97;7310125;19;153839;-43
2022/03/04 05:38:25;;;;;;;;;;;;;;;23.90;48.05;99907.47;7309706;19;130176;-39
2022/03/04 05:40:50;;;;;;;;;;;;;;;23.93;48.72;99907.16;7311658;19;130226;-41
2022/03/04 05:43:16;;;;;;;;;;;;;;;23.98;48.52;99915.44;7309337;19;147371;-38
2022/03/04 05:45:41;;;;;;;;;;;;;;;23.92;47.92;99895.00;7311404;19;129264;-41
2022/03/04 05:48:07;;;;;;;;;;;;;;;24.04;48.43;99909.63;7307755;19;158611;-40
2022/03/04 05:50:32;;;;;;;;;;;;;;;24.04;48.02;99912.25;7311469;19;130900;-40
2022/03/04 05:52:58;;;;;;;;;;;;;;;24.00;47.88;99905.63;7309897;19;128964;-37
2022/03/04 05:55:23;;;;;;;;;;;;;;;23.84;48.61;99905.44;7309951;19;130175;-41
2022/03/04 05:57:48;;;;;;;;;;;;;;;23.81;49.01;99913.59;7308347;19;130110;-40
2022/03/04 06:00:14;;;;;;;;;;;;;;;23.71;48.57;99920.69;7307669;19;158833;-40
2022/03/04 06:02:39;;;;;;;;;;;;;;;23.69;48.92;99924.44;7310302;19;129181;-39
2022/03/04 06:05:04;;;;;;;;;;;;;;;23.54;49.11;99913.56;7304096;19;141882;-38
2022/03/04 06:07:33;;;;;;;;;;;;;;;23.66;48.82;99927.34;7309642;19;131444;-40
2022/03/04 06:09:58;;;;;;;;;;;;;;;23.68;48.70;99934.13;7316344;19;130980;-39
2022/03/04 06:12:24;;;;;;;;;;;;;;;23.71;48.97;99933.81;7314390;19;141356;-39
2022/03/04 06:14:49;;;;;;;;;;;;;;;23.77;48.86;99938.47;7312590;19;153781;-39
2022/03/04 06:17:15;;;;;;;;;;;;;;;23.78;48.59;99934.91;7312441;19;158692;-40
2022/03/04 06:19:41;;;;;;;;;;;;;;;23.87;48.27;99939.28;7316030;19;129857;-41
2022/03/04 06:22:06;;;;;;;;;;;;;;;23.89;48.07;99942.59;7315601;19;129292;-40
2022/03/04 06:24:31;;;;;;;;;;;;;;;23.93;48.91;99943.94;7315647;19;130467;-40
2022/03/04 06:26:57;;;;;;;;;;;;;;;23.93;48.75;99951.00;7315360;19;158582;-40
2022/03/04 06:29:22;;;;;;;;;;;;;;;23.96;48.74;99955.94;7312763;19;158647;-40
2022/03/04 06:31:47;;;;;;;;;;;;;;;24.02;47.97;99953.59;7316664;19;134857;-38
2022/03/04 06:34:12;;;;;;;;;;;;;;;24.04;48.12;99956.06;7312392;19;135260;-39
2022/03/04 06:36:38;;;;;;;;;;;;;;;24.00;48.54;99952.91;7314867;19;129485;-40
2022/03/04 06:39:03;;;;;;;;;;;;;;;23.94;48.32;99963.97;7315770;19;130479;-39
2022/03/04 06:41:28;;;;;;;;;;;;;;;23.87;48.46;99957.66;7313729;19;129873;-37
2022/03/04 06:43:54;;;;;;;;;;;;;;;23.76;49.23;99957.84;7301010;19;153862;-38
2022/03/04 06:46:19;;;;;;;;;;;;;;;23.71;49.11;99967.97;7295639;19;130218;-40
2022/03/04 06:48:44;;;;;;;;;;;;;;;23.68;48.72;99965.63;7313756;19;130667;-41
2022/03/04 06:51:10;;;;;;;;;;;;;;;23.69;49.16;99971.69;7313497;19;151267;-41
2022/03/04 06:53:35;;;;;;;;;;;;;;;23.72;49.33;99966.97;7312689;19;129529;-40
2022/03/04 06:56:00;;;;;;;;;;;;;;;23.73;49.12;99967.81;7316441;19;130164;-40
2022/03/04 06:58:26;;;;;;;;;;;;;;;23.80;49.20;99961.00;7315835;19;131177;-40
2022/03/04 07:00:51;;;;;;;;;;;;;;;23.86;48.32;99963.88;7302483;19;129695;-40
2022/03/04 07:03:16;;;;;;;;;;;;;;;23.86;48.68;99968.31;7313496;19;153955;-40
2022/03/04 07:05:43;;;;;;;;;;;;;;;23.86;48.66;99969.13;7315458;19;130963;-38
2022/03/04 07:08:11;;;;;;;;;;;;;;;23.88;48.21;99961.91;7315401;19;130383;-40
2022/03/04 07:10:36;;;;;;;;;;;;;;;23.91;48.65;99976.56;7313658;19;130351;-40
2022/03/04 07:13:02;;;;;;;;;;;;;;;23.89;48.91;99971.47;7314663;19;129443;-39
2022/03/04 07:15:27;;;;;;;;;;;;;;;23.88;48.25;99972.41;7313123;19;131195;-39
2022/03/04 07:17:53;;;;;;;;;;;;;;;23.91;48.20;99976.56;7315575;19;129569;-40
2022/03/04 07:20:18;;;;;;;;;;;;;;;23.95;48.49;99973.50;7311836;19;129097;-39
2022/03/04 07:22:43;;;;;;;;;;;;;;;23.96;48.39;99975.19;7313781;19;154112;-39
2022/03/04 07:25:10;;;;;;;;;;;;;;;24.01;48.33;99982.66;7310249;19;131183;-38
2022/03/04 07:27:35;;;;;;;;;;;;;;;23.96;48.48;99974.34;7313575;19;130855;-40
2022/03/04 07:30:01;;;;;;;;;;;;;;;23.91;48.60;99982.66;7313195;19;129494;-40
2022/03/04 07:32:26;;;;;;;;;;;;;;;23.83;49.00;99985.16;7314376;19;129047;-38
2022/03/04 07:34:51;;;;;;;;;;;;;;;23.70;49.40;99984.66;7309434;19;156985;-40
2022/03/04 07:37:16;;;;;;;;;;;;;;;23.63;48.82;99988.00;7310685;19;159383;-40
2022/03/04 07:39:41;;;;;;;;;;;;;;;23.54;49.36;99984.44;7308203;19;154860;-40
2022/03/04 07:42:07;;;;;;;;;;;;;;;23.52;49.44;99991.63;7313128;19;129050;-41
2022/03/04 07:44:32;;;;;;;;;;;;;;;23.47;49.88;99978.09;7311975;19;130642;-41
2022/03/04 07:46:57;;;;;;;;;;;;;;;23.55;49.54;100001.84;7311332;19;129526;-41
2022/03/04 07:49:22;;;;;;;;;;;;;;;23.51;49.21;99984.72;7314543;19;129850;-41
2022/03/04 07:51:48;;;;;;;;;;;;;;;23.50;49.81;99983.09;7310777;19;153249;-39
2022/03/04 07:54:13;;;;;;;;;;;;;;;23.64;49.36;99994.91;7311415;19;130224;-40
2022/03/04 07:56:39;;;;;;;;;;;;;;;23.66;49.00;100004.31;7311048;19;130296;-40
2022/03/04 07:59:04;;;;;;;;;;;;;;;23.73;49.29;99994.91;7310651;19;149854;-40
2022/03/04 08:01:29;;;;;;;;;;;;;;;23.72;48.84;100003.72;7313210;19;153730;-41
2022/03/04 08:03:54;;;;;;;;;;;;;;;23.81;48.68;100007.28;7311423;19;131265;-40
2022/03/04 08:06:19;;;;;;;;;;;;;;;23.72;48.93;99987.13;7311257;19;158584;-41
2022/03/04 08:08:44;;;;;;;;;;;;;;;23.84;49.19;100007.84;7311515;19;146287;-40
2022/03/04 08:11:10;;;;;;;;;;;;;;;23.90;48.70;100015.13;7314557;19;129152;-41
2022/03/04 08:13:36;;;;;;;;;;;;;;;23.90;48.86;100007.25;7312374;19;130059;-40
2022/03/04 08:16:01;;;;;;;;;;;;;;;23.96;48.25;100011.09;7312059;19;131224;-41
2022/03/04 08:18:27;;;;;;;;;;;;;;;23.95;48.36;100010.28;7314043;19;129229;-40
2022/03/04 08:20:53;;;;;;;;;;;;;;;23.99;48.50;100011.69;7305381;19;154519;-37
2022/03/04 08:23:18;;;;;;;;;;;;;;;23.96;46.67;100005.84;7269486;19;131366;-42
2022/03/04 08:25:44;;;;;;;;;;;;;;;23.86;45.27;100010.31;7294240;19;130057;-41
2022/03/04 08:28:09;;;;;;;;;;;;;;;23.83;46.18;100015.88;7300113;19;129288;-40
2022/03/04 08:30:35;;;;;;;;;;;;;;;23.87;45.30;100017.22;7307342;19;129088;-37
2022/03/04 08:33:00;;;;;;;;;;;;;;;23.81;43.56;100018.63;7311604;19;130593;-39
2022/03/04 08:35:25;;;;;;;;;;;;;;;23.85;44.51;100022.59;7306527;19;158846;-40
2022/03/04 08:37:52;;;;;;;;;;;;;;;24.04;45.66;100013.88;7311462;19;129959;-40
2022/03/04 08:40:17;;;;;;;;;;;;;;;24.14;46.09;100020.75;7312176;19;129148;-39
2022/03/04 08:42:42;;;;;;;;;;;;;;;24.30;45.31;100020.09;7311948;19;129727;-39
2022/03/04 08:45:08;;;;;;;;;;;;;;;24.51;45.34;100022.47;7306649;19;159911;-39
2022/03/04 08:47:33;;;;;;;;;;;;;;;24.59;45.42;100019.91;7312550;19;130208;-40
2022/03/04 08:49:58;;;;;;;;;;;;;;;24.65;45.57;100021.94;7309000;19;153031;-38
2022/03/04 08:52:24;;;;;;;;;;;;;;;24.74;45.79;100014.03;7309947;19;154920;-40
2022/03/04 08:54:49;;;;;;;;;;;;;;;24.77;45.05;100007.66;7309307;19;130751;-40
2022/03/04 08:57:14;;;;;;;;;;;;;;;24.90;45.18;100023.88;7309295;19;129144;-39
2022/03/04 08:59:39;;;;;;;;;;;;;;;24.99;45.53;100023.78;7311883;19;129563;-40
2022/03/04 09:02:05;;;;;;;;;;;;;;;25.04;44.95;100026.78;7308622;19;158629;-41
2022/03/04 09:04:30;;;;;;;;;;;;;;;25.06;45.57;100029.28;7309569;19;129339;-39
2022/03/04 09:06:55;;;;;;;;;;;;;;;25.13;45.11;100027.69;7308694;19;154714;-40
2022/03/04 09:09:21;;;;;;;;;;;;;;;25.14;45.49;100034.63;7310358;19;129641;-39
2022/03/04 09:11:46;;;;;;;;;;;;;;;25.20;45.83;100031.38;7311244;19;129554;-39
2022/03/04 09:14:11;;;;;;;;;;;;;;;25.28;45.68;100041.97;7308473;19;129239;-40
2022/03/04 09:16:36;;;;;;;;;;;;;;;25.30;45.38;100040.00;7310287;19;129062;-40
2022/03/04 09:19:02;;;;;;;;;;;;;;;25.37;45.14;100034.00;7310136;19;128817;-40
2022/03/04 09:21:28;;;;;;;;;;;;;;;25.38;45.69;100050.63;7309046;19;129603;-41
2022/03/04 09:23:53;;;;;;;;;;;;;;;25.42;45.01;100044.09;7309957;19;130322;-40
2022/03/04 09:26:18;;;;;;;;;;;;;;;25.39;45.16;100049.66;7310380;19;129841;-41
2022/03/04 09:28:44;;;;;;;;;;;;;;;25.29;46.05;100056.78;7309670;19;129618;-41
2022/03/04 09:31:09;;;;;;;;;;;;;;;25.17;46.34;100058.00;7309619;19;130409;-41
2022/03/04 09:33:35;;;;;;;;;;;;;;;25.02;46.43;100062.13;7309624;19;130238;-40
2022/03/04 09:36:00;;;;;;;;;;;;;;;24.89;47.13;100057.22;7310649;19;128960;-40
2022/03/04 09:38:26;;;;;;;;;;;;;;;24.78;47.63;100051.38;7307841;19;129611;-40
2022/03/04 09:40:51;;;;;;;;;;;;;;;24.76;47.05;100048.06;7310994;19;129210;-40
2022/03/04 09:43:19;;;;;;;;;;;;;;;24.80;47.31;100054.69;7308176;19;158784;-41
2022/03/04 09:45:48;;;;;;;;;;;;;;;24.82;47.39;100050.09;7316248;19;129285;-41
2022/03/04 09:48:14;;;;;;;;;;;;;;;24.83;47.69;100044.69;7315543;19;128945;-41
2022/03/04 09:50:41;;;;;;;;;;;;;;;24.91;47.42;100054.44;7316261;19;129290;-41
2022/03/04 09:53:09;;;;;;;;;;;;;;;24.95;47.25;100058.44;7316446;19;130190;-42
2022/03/04 09:55:35;;;;;;;;;;;;;;;25.03;46.72;100045.38;7312638;19;129604;-40
2022/03/04 09:58:00;;;;;;;;;;;;;;;25.07;47.06;100046.72;7315133;19;129233;-40
2022/03/04 10:00:26;;;;;;;;;;;;;;;25.13;47.17;100048.75;7313414;19;149143;-40
2022/03/04 10:02:51;;;;;;;;;;;;;;;25.18;46.62;100044.69;7316711;19;130289;-40
2022/03/04 10:05:17;;;;;;;;;;;;;;;25.22;46.72;100053.13;7312308;19;128984;-40
2022/03/04 10:07:44;;;;;;;;;;;;;;;25.26;46.68;100036.03;7315744;19;129589;-39
2022/03/04 10:10:11;;;;;;;;;;;;;;;25.32;46.68;100041.50;7314961;19;130658;-36
2022/03/04 10:12:47;;;;;;;;;;;;;;;25.39;46.40;100054.91;7315452;19;131352;-39
2022/03/04 10:15:12;;;;;;;;;;;;;;;25.46;46.47;100053.31;7313992;19;129896;-39
2022/03/04 10:17:38;;;;;;;;;;;;;;;25.47;46.46;100050.53;7316530;19;130459;-40
2022/03/04 10:20:06;;;;;;;;;;;;;;;25.48;46.48;100051.38;7315847;19;129208;-38
2022/03/04 10:22:42;;;;;;;;;;;;;;;25.53;46.79;100054.38;7315833;19;130272;-39
2022/03/04 10:25:17;;;;;;;;;;;;;;;25.59;45.80;100054.56;7313461;19;129727;-40
2022/03/04 10:27:43;;;;;;;;;;;;;;;25.61;46.38;100055.25;7315553;19;128929;-39
2022/03/04 10:30:08;;;;;;;;;;;;;;;25.62;45.87;100048.16;7314876;19;129894;-39
2022/03/04 10:32:34;;;;;;;;;;;;;;;25.56;46.03;100052.25;7314639;19;131687;-41
2022/03/04 10:35:00;;;;;;;;;;;;;;;25.43;46.71;100043.09;7313778;19;128941;-39
2022/03/04 10:37:39;;;;;;;;;;;;;;;25.40;46.57;100046.06;7315482;19;129075;-40
2022/03/04 10:40:10;;;;;;;;;;;;;;;25.23;46.97;100052.97;7314381;19;130258;-39
2022/03/04 10:42:38;;;;;;;;;;;;;;;25.10;47.15;100055.16;7315654;19;130819;-40
2022/03/04 10:45:04;;;;;;;;;;;;;;;24.94;47.81;100056.81;7312597;19;128916;-39
2022/03/04 10:47:38;;;;;;;;;;;;;;;25.02;47.53;100056.88;7314576;19;129146;-38
2022/03/04 10:50:05;;;;;;;;;;;;;;;25.00;47.51;100053.56;7314443;19;132155;-38
2022/03/04 10:52:30;;;;;;;;;;;;;;;25.02;48.23;100049.81;7315602;19;132033;-38
2022/03/04 10:54:55;;;;;;;;;;;;;;;25.05;47.49;100048.69;7312039;19;130206;-40
2022/03/04 10:57:21;;;;;;;;;;;;;;;25.08;47.05;100043.09;7310698;19;153809;-40
2022/03/04 10:59:56;;;;;;;;;;;;;;;25.07;47.37;100046.72;7314858;19;130501;-40
2022/03/04 11:02:38;;;;;;;;;;;;;;;25.10;46.73;100043.78;7311108;19;130303;-39
2022/03/04 11:05:08;;;;;;;;;;;;;;;25.12;46.43;100045.28;7307190;19;129637;-39
2022/03/04 11:07:35;;;;;;;;;;;;;;;25.16;46.51;100045.81;7312151;19;129529;-39
2022/03/04 11:10:01;;;;;;;;;;;;;;;25.17;46.38;100043.03;7314716;19;130221;-39
2022/03/04 11:12:27;;;;;;;;;;;;;;;25.27;45.95;100042.97;7315822;19;129668;-41
2022/03/04 11:14:53;;;;;;;;;;;;;;;25.28;46.13;100044.59;7310557;19;129531;-40
2022/03/04 11:17:19;;;;;;;;;;;;;;;25.31;45.98;100044.28;7313775;19;129308;-40
2022/03/04 11:19:44;;;;;;;;;;;;;;;25.34;46.30;100041.34;7313215;19;129393;-39
2022/03/04 11:22:11;;;;;;;;;;;;;;;25.46;45.86;100048.91;7314450;19;130434;-38
2022/03/04 11:24:37;;;;;;;;;;;;;;;25.56;45.80;100043.53;7313835;19;129496;-39
2022/03/04 11:27:05;;;;;;;;;;;;;;;25.66;45.37;100046.88;7312827;19;130777;-39
2022/03/04 11:29:36;;;;;;;;;;;;;;;25.66;46.08;100049.53;7314859;19;130287;-37
2022/03/04 11:32:03;;;;;;;;;;;;;;;25.66;45.51;100052.16;7314190;19;130883;-38
2022/03/04 11:34:35;;;;;;;;;;;;;;;25.75;45.70;100047.78;7314164;19;129470;-39
2022/03/04 11:37:03;;;;;;;;;;;;;;;25.77;45.74;100049.25;7312402;19;129738;-39
2022/03/04 11:39:29;;;;;;;;;;;;;;;25.66;45.71;100060.06;7314184;19;130212;-39
2022/03/04 11:41:54;;;;;;;;;;;;;;;25.54;45.86;100061.28;7313292;19;131783;-39
2022/03/04 11:44:20;;;;;;;;;;;;;;;25.42;46.53;100062.53;7312357;19;129225;-38
2022/03/04 11:46:45;;;;;;;;;;;;;;;25.25;46.92;100058.06;7314176;19;129387;-39
2022/03/04 11:49:29;;;;;;;;;;;;;;;25.13;47.32;100059.28;7312041;19;130655;-37
2022/03/04 11:52:10;;;;;;;;;;;;;;;25.05;47.61;100059.19;7313359;19;130543;-41
2022/03/04 11:54:45;;;;;;;;;;;;;;;25.03;47.76;100054.09;7311580;19;130344;-39
2022/03/04 11:57:24;;;;;;;;;;;;;;;25.05;48.10;100059.19;7313098;19;129280;-37
2022/03/04 11:59:56;;;;;;;;;;;;;;;25.12;47.65;100062.88;7312149;19;129404;-36
2022/03/04 12:10:14;;;;;;;40.55;5.22;;;;;;;25.35;46.94;100058.84;7342157;19;129773;-38
2022/03/04 12:13:02;;;;;;;75.07;6.65;;;;;;;25.34;47.47;100065.03;7342360;19;130512;-39
2022/03/04 12:15:27;;;;;;;68.20;6.65;;;;;;;25.43;47.09;100059.75;7344735;19;130332;-42
2022/03/04 12:18:03;;;;;;;47.83;4.67;;;;;;;25.41;46.92;100056.44;7341252;19;158455;-39
2022/03/04 12:21:01;;;;;;;56.78;5.75;;;;;;;25.49;47.12;100061.75;7345234;19;129235;-38
2022/03/04 12:23:30;;;;;;;33.37;4.40;;;;;;;25.42;47.28;100042.28;7344955;19;130063;-39
2022/03/04 12:25:59;;;;;;;32.22;4.22;;;;;;;25.58;46.88;100057.38;7345670;19;130191;-40
2022/03/04 12:28:34;;;;;;;30.65;4.13;;;;;;;25.58;46.51;100058.19;7345648;19;134326;-40
2022/03/04 12:31:02;;;;;;;19.52;3.58;;;;;;;25.64;46.65;100062.00;7346284;19;130460;-38
2022/03/04 12:33:29;;;;;;;26.60;4.38;;;;;;;25.64;46.69;100062.00;7345382;19;129068;-41
2022/03/04 12:35:57;;;;;;;35.20;4.60;;;;;;;25.69;46.75;100062.38;7343971;19;129251;-41